Terminal Aerodrome Forecast
Issued by NWS Charleston, WV

Current Version | Previous Version | Graphics & Text | Print | Product List | Glossary On
Versions: 1 2 3 4 5 6 7 8 9 10 11 12 13 14 15 16 17 18 19 20 21 22 23 24 25 26 27
704
FTUS41 KRLX 170331 AAB
TAFBKW
TAF AMD
KBKW 170331Z 1704/1724 34009KT 5SM -SN BKN009 OVC040
     FM170600 33006KT 4SM -SHSN OVC018
     FM170900 33006KT P6SM BKN014
     FM171700 31007KT P6SM SCT022=

USA.gov is the U.S. government's official web portal to all federal, state and local government web resources and services.